Terminal Aerodrome Forecast
Issued by NWS

Home | Current Version | Previous Version | Text Only | Print | Product List | Glossary On
Versions: 1 2 3 4 5 6 7 8 9 10 11 12
889
FTUS45 KGGW 261126
TAFSDY
TAF
KSDY 261126Z 2612/2712 26007KT P6SM SKC
     FM261800 28015KT P6SM SKC
     FM270300 28008KT P6SM SKC
     FM270700 30007KT P6SM SKC
     FM270900 33005KT P6SM SKC=

USA.gov is the U.S. government's official web portal to all federal, state and local government web resources and services.